Time;durP1;ratioP1;P1;durP2;ratioP2;P2;SDS_P1;SDS_P2;PMS_P1;PMS_P2;Temp;Humidity;BMP_temperature;BMP_pressure;BME280_temperature;BME280_humidity;BME280_pressure;Samples;Min_cycle;Max_cycle;Signal;HPM_P1;HPM_P2
2023/09/17 00:00:13;;;;;;;;;;;15.40;99.90;;;;;;5019893;28;20451;-85
2023/09/17 00:02:39;;;;;;;;;;;15.40;99.90;;;;;;5017491;27;19929;-85
2023/09/17 00:05:05;;;;;;;;;;;15.40;99.90;;;;;;5003211;28;20053;-84
2023/09/17 00:07:31;;;;;;;;;;;15.40;99.90;;;;;;5002892;28;19968;-85
2023/09/17 00:09:56;;;;;;;;;;;15.30;99.90;;;;;;5009363;28;20033;-85
2023/09/17 00:12:22;;;;;;;;;;;15.30;99.90;;;;;;5000096;28;19989;-85
2023/09/17 00:14:48;;;;;;;;;;;15.30;99.90;;;;;;5005102;28;20428;-80
2023/09/17 00:17:14;;;;;;;;;;;15.40;99.90;;;;;;5010765;28;19921;-80
2023/09/17 00:19:39;;;;;;;;;;;15.40;99.90;;;;;;5003028;27;20439;-80
2023/09/17 00:22:08;;;;;;;;;;;15.40;99.90;;;;;;5002381;28;19924;-80
2023/09/17 00:24:34;;;;;;;;;;;15.40;99.90;;;;;;5014926;28;19932;-80
2023/09/17 00:27:00;;;;;;;;;;;15.40;99.90;;;;;;5002875;28;19937;-80
2023/09/17 00:29:26;;;;;;;;;;;15.30;99.90;;;;;;5016572;28;19973;-80
2023/09/17 00:31:51;;;;;;;;;;;15.30;99.90;;;;;;5015498;28;19935;-79
2023/09/17 00:34:17;;;;;;;;;;;15.30;99.90;;;;;;5017040;28;19920;-80
2023/09/17 00:36:43;;;;;;;;;;;15.30;99.90;;;;;;5003424;28;19970;-80
2023/09/17 00:39:09;;;;;;;;;;;15.30;99.90;;;;;;5013968;28;19926;-80
2023/09/17 00:41:35;;;;;;;;;;;15.20;99.90;;;;;;5005097;28;19960;-85
2023/09/17 00:44:01;;;;;;;;;;;15.20;99.90;;;;;;5000969;28;19932;-87
2023/09/17 00:46:26;;;;;;;;;;;15.20;99.90;;;;;;5004681;28;19925;-86
2023/09/17 00:48:52;;;;;;;;;;;15.10;99.90;;;;;;5002056;28;20390;-86
2023/09/17 00:51:18;;;;;;;;;;;15.10;99.90;;;;;;5013031;28;20017;-86
2023/09/17 00:53:44;;;;;;;;;;;15.00;99.90;;;;;;5016821;28;20016;-85
2023/09/17 00:56:10;;;;;;;;;;;15.00;99.90;;;;;;5001617;28;19928;-86
2023/09/17 00:58:36;;;;;;;;;;;15.00;99.90;;;;;;5003286;28;20007;-86
2023/09/17 01:01:03;;;;;;;;;;;15.00;99.90;;;;;;4994357;28;19925;-87
2023/09/17 01:03:32;;;;;;;;;;;15.00;99.90;;;;;;5001773;28;19925;-87
2023/09/17 01:06:00;;;;;;;;;;;15.00;99.90;;;;;;5004588;28;19935;-87
2023/09/17 01:08:27;;;;;;;;;;;15.00;99.90;;;;;;5021457;28;19952;-87
2023/09/17 01:10:57;;;;;;;;;;;14.90;99.90;;;;;;5002943;28;19928;-87
2023/09/17 01:13:23;;;;;;;;;;;14.90;99.90;;;;;;5017146;28;19925;-85
2023/09/17 01:15:51;;;;;;;;;;;14.80;99.90;;;;;;5004303;28;19925;-85
2023/09/17 01:18:18;;;;;;;;;;;14.90;99.90;;;;;;5003122;28;20417;-80
2023/09/17 01:20:50;;;;;;;;;;;14.90;99.90;;;;;;5004778;28;19932;-80
2023/09/17 01:23:28;;;;;;;;;;;14.80;99.90;;;;;;5004900;27;19986;-79
2023/09/17 01:25:56;;;;;;;;;;;14.80;99.90;;;;;;5005612;28;19931;-79
2023/09/17 01:28:22;;;;;;;;;;;14.80;99.90;;;;;;5002712;28;20065;-80
2023/09/17 01:30:48;;;;;;;;;;;14.80;99.90;;;;;;5022434;28;20430;-80
2023/09/17 01:33:13;;;;;;;;;;;14.80;99.90;;;;;;5016344;28;19924;-85
2023/09/17 01:36:01;;;;;;;;;;;14.80;99.90;;;;;;5019815;28;20066;-85
2023/09/17 01:38:32;;;;;;;;;;;14.90;99.90;;;;;;5004890;28;20016;-86
2023/09/17 01:41:00;;;;;;;;;;;14.90;99.90;;;;;;5014776;28;19921;-86
2023/09/17 01:43:25;;;;;;;;;;;14.90;99.90;;;;;;5005393;28;19921;-85
2023/09/17 01:45:52;;;;;;;;;;;14.90;99.90;;;;;;5005996;28;19928;-87
2023/09/17 01:48:18;;;;;;;;;;;14.90;99.90;;;;;;5015005;27;20493;-86
2023/09/17 01:50:44;;;;;;;;;;;14.80;99.90;;;;;;5006229;28;20002;-85
2023/09/17 01:53:11;;;;;;;;;;;14.80;99.90;;;;;;5012029;28;19936;-86
2023/09/17 01:55:37;;;;;;;;;;;14.80;99.90;;;;;;5003858;28;19921;-86
2023/09/17 01:58:03;;;;;;;;;;;14.80;99.90;;;;;;5002899;28;19969;-86
2023/09/17 02:00:29;;;;;;;;;;;14.80;99.90;;;;;;5001733;28;19927;-85
2023/09/17 02:02:55;;;;;;;;;;;14.80;99.90;;;;;;4995919;28;19924;-85
2023/09/17 02:05:21;;;;;;;;;;;14.90;99.90;;;;;;4997274;28;19960;-85
2023/09/17 02:07:47;;;;;;;;;;;14.90;99.90;;;;;;5010536;28;19974;-85
2023/09/17 02:10:13;;;;;;;;;;;14.80;99.90;;;;;;4999028;28;19932;-86
2023/09/17 02:12:39;;;;;;;;;;;14.80;99.90;;;;;;5016124;27;20098;-86
2023/09/17 02:15:05;;;;;;;;;;;14.80;99.90;;;;;;4994204;28;19921;-86
2023/09/17 02:17:31;;;;;;;;;;;14.80;99.90;;;;;;5002556;28;19921;-86
2023/09/17 02:19:57;;;;;;;;;;;14.80;99.90;;;;;;5003989;28;19921;-86
2023/09/17 02:22:22;;;;;;;;;;;14.80;99.90;;;;;;5014374;28;20000;-86
2023/09/17 02:24:48;;;;;;;;;;;14.70;99.90;;;;;;5018022;28;19960;-87
2023/09/17 02:27:14;;;;;;;;;;;14.80;99.90;;;;;;5002660;28;19952;-86
2023/09/17 02:29:40;;;;;;;;;;;14.80;99.90;;;;;;5019269;28;19921;-87
2023/09/17 02:32:05;;;;;;;;;;;14.80;99.90;;;;;;5004650;28;20310;-87
2023/09/17 02:34:31;;;;;;;;;;;14.80;99.90;;;;;;4992841;28;19940;-87
2023/09/17 02:36:56;;;;;;;;;;;14.80;99.90;;;;;;5003843;28;19933;-87
2023/09/17 02:39:22;;;;;;;;;;;14.80;99.90;;;;;;5005018;28;20023;-87
2023/09/17 02:41:48;;;;;;;;;;;14.80;99.90;;;;;;5030546;27;20012;-80
2023/09/17 02:44:13;;;;;;;;;;;14.80;99.90;;;;;;5019582;28;20352;-80
2023/09/17 02:46:40;;;;;;;;;;;14.80;99.90;;;;;;4994149;27;19954;-80
2023/09/17 02:49:05;;;;;;;;;;;14.80;99.90;;;;;;5006511;28;19933;-80
2023/09/17 02:51:31;;;;;;;;;;;14.70;99.90;;;;;;5010081;28;20003;-80
2023/09/17 02:53:57;;;;;;;;;;;14.80;99.90;;;;;;5019979;28;19975;-80
2023/09/17 02:56:23;;;;;;;;;;;14.70;99.90;;;;;;5004750;28;19936;-80
2023/09/17 02:58:51;;;;;;;;;;;14.70;99.90;;;;;;4999069;28;20016;-79
2023/09/17 03:01:20;;;;;;;;;;;14.70;99.90;;;;;;5018491;27;20015;-85
2023/09/17 03:03:46;;;;;;;;;;;14.70;99.90;;;;;;5018316;28;19921;-87
2023/09/17 03:06:11;;;;;;;;;;;14.70;99.90;;;;;;5016978;28;19970;-85
2023/09/17 03:08:41;;;;;;;;;;;14.70;99.90;;;;;;5015826;28;19925;-86
2023/09/17 03:11:13;;;;;;;;;;;14.70;99.90;;;;;;5031552;28;19929;-86
2023/09/17 03:13:42;;;;;;;;;;;14.70;99.90;;;;;;5046975;28;19935;-84
2023/09/17 03:16:08;;;;;;;;;;;14.70;99.90;;;;;;5000590;28;19921;-85
2023/09/17 03:18:34;;;;;;;;;;;14.70;99.90;;;;;;5002529;28;20252;-85
2023/09/17 03:21:04;;;;;;;;;;;14.70;99.90;;;;;;5009746;28;19920;-85
2023/09/17 03:23:30;;;;;;;;;;;14.70;99.90;;;;;;5019027;28;19921;-85
2023/09/17 03:25:56;;;;;;;;;;;14.70;99.90;;;;;;5002929;28;19986;-85
2023/09/17 03:28:21;;;;;;;;;;;14.70;99.90;;;;;;5019535;28;19925;-85
2023/09/17 03:30:47;;;;;;;;;;;14.70;99.90;;;;;;5018512;28;19944;-86
2023/09/17 03:33:13;;;;;;;;;;;14.70;99.90;;;;;;5004632;28;19929;-86
2023/09/17 03:35:39;;;;;;;;;;;14.70;99.90;;;;;;4989809;28;19925;-87
2023/09/17 03:38:05;;;;;;;;;;;14.70;99.90;;;;;;5020771;28;20417;-86
2023/09/17 03:40:31;;;;;;;;;;;14.70;99.90;;;;;;4994791;28;20321;-86
2023/09/17 03:42:57;;;;;;;;;;;14.70;99.90;;;;;;5005704;28;20276;-86
2023/09/17 03:45:22;;;;;;;;;;;14.70;99.90;;;;;;5021744;28;19928;-86
2023/09/17 03:47:48;;;;;;;;;;;14.70;99.90;;;;;;5019269;28;19921;-85
2023/09/17 03:50:15;;;;;;;;;;;14.70;99.90;;;;;;5013099;28;20309;-86
2023/09/17 03:52:43;;;;;;;;;;;14.70;99.90;;;;;;4995784;28;19961;-86
2023/09/17 03:55:08;;;;;;;;;;;14.80;99.90;;;;;;5019078;28;19928;-86
2023/09/17 03:57:35;;;;;;;;;;;14.80;99.90;;;;;;5001765;28;19921;-87
2023/09/17 04:00:06;;;;;;;;;;;14.80;99.90;;;;;;5004606;28;19929;-86
2023/09/17 04:02:32;;;;;;;;;;;14.90;99.90;;;;;;5003952;28;19921;-86
2023/09/17 04:04:58;;;;;;;;;;;14.90;99.90;;;;;;5000982;28;19932;-87
2023/09/17 04:07:23;;;;;;;;;;;14.90;99.90;;;;;;4986885;28;20352;-86
2023/09/17 04:09:49;;;;;;;;;;;14.90;99.90;;;;;;4995787;28;20125;-86
2023/09/17 04:12:15;;;;;;;;;;;14.80;99.90;;;;;;4984392;28;19930;-86
2023/09/17 04:14:40;;;;;;;;;;;15.00;99.90;;;;;;4998077;28;19929;-86
2023/09/17 04:17:06;;;;;;;;;;;15.00;99.90;;;;;;4989839;28;19928;-86
2023/09/17 04:19:32;;;;;;;;;;;15.00;99.90;;;;;;4981557;28;19933;-86
2023/09/17 04:21:58;;;;;;;;;;;15.10;99.90;;;;;;4999082;28;19937;-86
2023/09/17 04:24:24;;;;;;;;;;;15.10;99.90;;;;;;4980692;28;19925;-86
2023/09/17 04:26:52;;;;;;;;;;;15.10;99.90;;;;;;4988202;28;20246;-86
2023/09/17 04:29:21;;;;;;;;;;;15.10;99.90;;;;;;4984631;28;19930;-87
2023/09/17 04:31:46;;;;;;;;;;;15.10;99.90;;;;;;4985091;28;19921;-87
2023/09/17 04:34:13;;;;;;;;;;;15.10;99.90;;;;;;4992725;28;19982;-87
2023/09/17 04:36:39;;;;;;;;;;;15.10;99.90;;;;;;4996863;28;20011;-86
2023/09/17 04:39:04;;;;;;;;;;;15.10;99.90;;;;;;4983999;28;19925;-86
2023/09/17 04:41:30;;;;;;;;;;;15.10;99.90;;;;;;4981668;28;19937;-86
2023/09/17 04:43:56;;;;;;;;;;;15.10;99.90;;;;;;4983393;28;19992;-86
2023/09/17 04:46:22;;;;;;;;;;;15.10;99.90;;;;;;5001016;28;20359;-87
2023/09/17 04:48:47;;;;;;;;;;;15.10;99.90;;;;;;4989408;28;19925;-87
2023/09/17 04:51:16;;;;;;;;;;;15.10;99.90;;;;;;4984337;28;20284;-87
2023/09/17 04:53:42;;;;;;;;;;;15.10;99.90;;;;;;4997511;28;19935;-87
2023/09/17 04:56:08;;;;;;;;;;;15.10;99.90;;;;;;4983395;28;20388;-86
2023/09/17 04:58:34;;;;;;;;;;;15.10;99.90;;;;;;4995364;28;19929;-87
2023/09/17 05:00:59;;;;;;;;;;;15.10;99.90;;;;;;4996936;28;19929;-86
2023/09/17 05:03:25;;;;;;;;;;;15.10;99.90;;;;;;4996145;28;20360;-86
2023/09/17 05:05:51;;;;;;;;;;;15.10;99.90;;;;;;4997575;28;19925;-87
2023/09/17 05:08:18;;;;;;;;;;;15.10;99.90;;;;;;4992514;28;19928;-86
2023/09/17 05:10:44;;;;;;;;;;;15.10;99.90;;;;;;4986395;28;19921;-87
2023/09/17 05:13:09;;;;;;;;;;;15.10;99.90;;;;;;4981797;28;19971;-87
2023/09/17 05:15:36;;;;;;;;;;;15.10;99.90;;;;;;4997098;28;19959;-87
2023/09/17 05:18:08;;;;;;;;;;;15.10;99.90;;;;;;4980552;28;19930;-87
2023/09/17 05:20:35;;;;;;;;;;;15.10;99.90;;;;;;4985214;28;19928;-87
2023/09/17 05:23:05;;;;;;;;;;;15.10;99.90;;;;;;4985428;28;20570;-87
2023/09/17 05:25:32;;;;;;;;;;;15.10;99.90;;;;;;4974977;28;19925;-86
2023/09/17 05:27:57;;;;;;;;;;;15.10;99.90;;;;;;4998957;28;19922;-86
2023/09/17 05:30:23;;;;;;;;;;;15.20;99.90;;;;;;4984572;28;19921;-86
2023/09/17 05:32:48;;;;;;;;;;;15.20;99.90;;;;;;4995146;28;19925;-86
2023/09/17 05:35:14;;;;;;;;;;;15.20;99.90;;;;;;4997579;28;19928;-87
2023/09/17 05:37:40;;;;;;;;;;;15.20;99.90;;;;;;4995064;28;19922;-85
2023/09/17 05:40:06;;;;;;;;;;;15.30;99.90;;;;;;4998493;28;19932;-87
2023/09/17 05:42:33;;;;;;;;;;;15.30;99.90;;;;;;4975381;28;19922;-86
2023/09/17 05:44:59;;;;;;;;;;;15.40;99.90;;;;;;4997162;28;19921;-87
2023/09/17 05:47:24;;;;;;;;;;;15.40;99.90;;;;;;4982820;28;19966;-88
2023/09/17 05:49:50;;;;;;;;;;;15.40;99.90;;;;;;4983697;28;20300;-87
2023/09/17 05:52:16;;;;;;;;;;;15.50;99.90;;;;;;4982388;28;19937;-87
2023/09/17 05:54:41;;;;;;;;;;;15.50;99.90;;;;;;4996365;28;19973;-87
2023/09/17 05:57:07;;;;;;;;;;;15.50;99.90;;;;;;4994828;28;20011;-79
2023/09/17 05:59:33;;;;;;;;;;;15.60;99.90;;;;;;4985179;28;19921;-79
2023/09/17 06:01:59;;;;;;;;;;;15.70;99.90;;;;;;4983544;28;19922;-80
2023/09/17 06:04:24;;;;;;;;;;;15.70;99.90;;;;;;4994679;28;20426;-79
2023/09/17 06:06:50;;;;;;;;;;;15.80;99.90;;;;;;4987076;28;20041;-80
2023/09/17 06:09:16;;;;;;;;;;;15.80;99.90;;;;;;5019022;28;20027;-79
2023/09/17 06:11:42;;;;;;;;;;;15.80;99.90;;;;;;5049758;28;19921;-79
2023/09/17 06:14:08;;;;;;;;;;;15.90;99.90;;;;;;5021913;28;19929;-79
2023/09/17 06:16:34;;;;;;;;;;;15.90;99.90;;;;;;4999171;28;20275;-79
2023/09/17 06:18:59;;;;;;;;;;;16.00;99.90;;;;;;4994958;28;19928;-78
2023/09/17 06:21:25;;;;;;;;;;;16.00;99.90;;;;;;5003696;27;19927;-79
2023/09/17 06:23:51;;;;;;;;;;;16.10;99.90;;;;;;5015125;28;19927;-78
2023/09/17 06:26:16;;;;;;;;;;;16.10;99.90;;;;;;4998456;28;19981;-80
2023/09/17 06:28:42;;;;;;;;;;;16.20;99.90;;;;;;5018102;28;19978;-79
2023/09/17 06:31:08;;;;;;;;;;;16.20;99.90;;;;;;4995815;28;20371;-78
2023/09/17 06:33:35;;;;;;;;;;;16.20;99.90;;;;;;5007665;28;19932;-78
2023/09/17 06:36:01;;;;;;;;;;;16.20;99.90;;;;;;5006603;27;19978;-78
2023/09/17 06:38:26;;;;;;;;;;;16.30;99.90;;;;;;5042894;27;19971;-79
2023/09/17 06:40:52;;;;;;;;;;;16.40;99.90;;;;;;4998095;28;20024;-79
2023/09/17 06:43:18;;;;;;;;;;;16.30;99.90;;;;;;5019210;28;20402;-86
2023/09/17 06:45:43;;;;;;;;;;;16.40;99.90;;;;;;5006452;28;19921;-86
2023/09/17 06:48:09;;;;;;;;;;;16.40;99.90;;;;;;5007320;28;19924;-86
2023/09/17 06:50:35;;;;;;;;;;;16.50;99.90;;;;;;5012703;28;19921;-86
2023/09/17 06:53:00;;;;;;;;;;;16.60;99.90;;;;;;5025775;28;20532;-85
2023/09/17 06:55:26;;;;;;;;;;;16.60;99.90;;;;;;4996642;28;20367;-85
2023/09/17 06:57:52;;;;;;;;;;;16.60;99.90;;;;;;5026494;28;19921;-86
2023/09/17 07:00:18;;;;;;;;;;;16.70;99.90;;;;;;5024458;27;19924;-86
2023/09/17 07:02:44;;;;;;;;;;;16.70;99.90;;;;;;5021571;28;19928;-86
2023/09/17 07:05:10;;;;;;;;;;;16.70;99.90;;;;;;4999342;28;19924;-85
2023/09/17 07:07:36;;;;;;;;;;;16.70;99.90;;;;;;5021867;28;19960;-85
2023/09/17 07:10:03;;;;;;;;;;;16.80;99.90;;;;;;5023886;28;20017;-85
2023/09/17 07:12:29;;;;;;;;;;;16.80;99.90;;;;;;5012140;27;19929;-85
2023/09/17 07:14:55;;;;;;;;;;;16.80;99.90;;;;;;4999953;28;19932;-86
2023/09/17 07:17:21;;;;;;;;;;;16.80;99.90;;;;;;5004669;27;19924;-84
2023/09/17 07:19:47;;;;;;;;;;;16.70;99.90;;;;;;5022076;28;19942;-85
2023/09/17 07:22:14;;;;;;;;;;;16.70;99.90;;;;;;5026876;28;19951;-84
2023/09/17 07:24:43;;;;;;;;;;;16.80;99.90;;;;;;5001372;27;20278;-84
2023/09/17 07:27:09;;;;;;;;;;;16.70;99.90;;;;;;4999529;28;19932;-79
2023/09/17 07:29:34;;;;;;;;;;;16.70;99.90;;;;;;5023722;28;19928;-79
2023/09/17 07:32:00;;;;;;;;;;;16.80;99.90;;;;;;4999069;28;19925;-79
2023/09/17 07:34:26;;;;;;;;;;;16.80;99.90;;;;;;5022737;28;19921;-80
2023/09/17 07:36:53;;;;;;;;;;;16.80;99.90;;;;;;5004057;28;19944;-81
2023/09/17 07:39:18;;;;;;;;;;;16.80;99.90;;;;;;5000211;28;19925;-82
2023/09/17 07:41:44;;;;;;;;;;;16.80;99.90;;;;;;5021040;28;20420;-83
2023/09/17 07:44:10;;;;;;;;;;;16.80;99.90;;;;;;5022131;27;19931;-82
2023/09/17 07:46:35;;;;;;;;;;;16.80;99.90;;;;;;5025261;28;20367;-82
2023/09/17 07:49:01;;;;;;;;;;;16.80;99.90;;;;;;5001374;28;20157;-80
2023/09/17 07:51:27;;;;;;;;;;;16.80;99.90;;;;;;5004434;28;19940;-81
2023/09/17 07:53:52;;;;;;;;;;;16.80;99.90;;;;;;4997497;28;20300;-81
2023/09/17 07:56:18;;;;;;;;;;;16.80;99.90;;;;;;5007806;28;19929;-81
2023/09/17 07:58:44;;;;;;;;;;;16.80;99.90;;;;;;4997863;28;21116;-81
2023/09/17 08:01:11;;;;;;;;;;;16.80;99.90;;;;;;5005026;28;19925;-81
2023/09/17 08:03:37;;;;;;;;;;;16.80;99.90;;;;;;5023379;28;19990;-81
2023/09/17 08:06:03;;;;;;;;;;;16.90;99.90;;;;;;4998830;28;20413;-80
2023/09/17 08:08:29;;;;;;;;;;;16.90;99.90;;;;;;5011305;28;19921;-80
2023/09/17 08:10:55;;;;;;;;;;;16.90;99.90;;;;;;5001630;28;20411;-81
2023/09/17 08:13:20;;;;;;;;;;;16.80;99.90;;;;;;4994996;28;19921;-84
2023/09/17 08:15:51;;;;;;;;;;;16.80;99.90;;;;;;5007771;28;20294;-80
2023/09/17 08:18:17;;;;;;;;;;;16.80;99.90;;;;;;5001440;28;19928;-82
2023/09/17 08:20:46;;;;;;;;;;;16.80;99.90;;;;;;5005431;28;19928;-81
2023/09/17 08:23:12;;;;;;;;;;;16.80;99.90;;;;;;5004427;28;20547;-82
2023/09/17 08:25:38;;;;;;;;;;;16.90;99.90;;;;;;5010643;28;20422;-82
2023/09/17 08:28:03;;;;;;;;;;;16.90;99.90;;;;;;5022568;27;19928;-82
2023/09/17 08:30:32;;;;;;;;;;;17.00;99.90;;;;;;5027085;28;19929;-84
2023/09/17 08:32:59;;;;;;;;;;;17.00;99.90;;;;;;5007044;28;19933;-81
2023/09/17 08:35:25;;;;;;;;;;;17.00;99.90;;;;;;4995048;28;20363;-81
2023/09/17 08:37:51;;;;;;;;;;;17.00;99.90;;;;;;5019632;28;19932;-81
2023/09/17 08:40:19;;;;;;;;;;;17.10;99.90;;;;;;5001727;28;20024;-81
2023/09/17 08:42:45;;;;;;;;;;;17.10;99.90;;;;;;5023994;28;19931;-81
2023/09/17 08:45:12;;;;;;;;;;;17.10;99.90;;;;;;5007721;28;19969;-81
2023/09/17 08:47:38;;;;;;;;;;;17.20;99.90;;;;;;5028857;28;19920;-81
2023/09/17 08:50:05;;;;;;;;;;;17.20;99.90;;;;;;5011018;28;20419;-81
2023/09/17 08:52:32;;;;;;;;;;;17.20;99.90;;;;;;5022456;28;19921;-80
2023/09/17 08:54:58;;;;;;;;;;;17.10;99.90;;;;;;5007033;28;20522;-81
2023/09/17 08:57:25;;;;;;;;;;;17.20;99.90;;;;;;5022052;28;19971;-80
2023/09/17 09:00:00;;;;;;;;;;;17.20;99.90;;;;;;5007865;28;19928;-80
2023/09/17 09:02:30;;;;;;;;;;;17.10;99.90;;;;;;5020871;28;20340;-80
2023/09/17 09:04:56;;;;;;;;;;;17.20;99.90;;;;;;5019575;28;20777;-80
2023/09/17 09:07:22;;;;;;;;;;;17.20;99.90;;;;;;5023293;28;19924;-80
2023/09/17 09:09:51;;;;;;;;;;;17.20;99.90;;;;;;5016217;27;19928;-80
2023/09/17 09:12:17;;;;;;;;;;;17.20;99.90;;;;;;5023028;28;19921;-80
2023/09/17 09:14:44;;;;;;;;;;;17.30;99.90;;;;;;5020793;28;19921;-81
2023/09/17 09:17:10;;;;;;;;;;;17.30;99.90;;;;;;5005724;28;20400;-80
2023/09/17 09:19:36;;;;;;;;;;;17.40;99.90;;;;;;5020877;28;20910;-87
2023/09/17 09:22:02;;;;;;;;;;;17.40;99.90;;;;;;5020787;28;20814;-88
2023/09/17 09:24:48;;;;;;;;;;;17.50;99.90;;;;;;5008026;28;19928;-87
2023/09/17 09:27:14;;;;;;;;;;;17.60;99.90;;;;;;5001617;28;20437;-87
2023/09/17 09:29:43;;;;;;;;;;;17.60;99.90;;;;;;5007191;28;19924;-88
2023/09/17 09:32:09;;;;;;;;;;;17.80;99.90;;;;;;5004588;28;19921;-88
2023/09/17 09:34:41;;;;;;;;;;;17.80;99.90;;;;;;5018843;28;20019;-85
2023/09/17 09:37:08;;;;;;;;;;;17.90;99.90;;;;;;5007944;28;19989;-86
2023/09/17 09:39:37;;;;;;;;;;;18.00;99.90;;;;;;5007951;28;19920;-87
2023/09/17 09:42:07;;;;;;;;;;;18.00;99.90;;;;;;5007004;28;19928;-87
2023/09/17 09:44:34;;;;;;;;;;;18.00;99.90;;;;;;5005870;27;19936;-87
2023/09/17 09:47:02;;;;;;;;;;;18.00;99.90;;;;;;5003632;28;19921;-88
2023/09/17 09:49:28;;;;;;;;;;;18.10;99.90;;;;;;5002480;28;19975;-87
2023/09/17 09:51:57;;;;;;;;;;;18.10;99.90;;;;;;5006783;28;19924;-88
2023/09/17 09:54:23;;;;;;;;;;;18.10;99.90;;;;;;5005040;27;20339;-86
2023/09/17 09:56:49;;;;;;;;;;;18.20;99.90;;;;;;4998344;28;19975;-87
2023/09/17 09:59:15;;;;;;;;;;;18.20;99.90;;;;;;5012197;28;20030;-88
2023/09/17 10:01:41;;;;;;;;;;;18.20;99.90;;;;;;5018825;27;20480;-87
2023/09/17 10:04:11;;;;;;;;;;;18.20;99.90;;;;;;4999550;28;20363;-88
2023/09/17 10:06:37;;;;;;;;;;;18.20;99.90;;;;;;5005434;28;19985;-86
2023/09/17 10:09:04;;;;;;;;;;;18.20;99.90;;;;;;5009065;28;20234;-87
2023/09/17 10:11:30;;;;;;;;;;;18.20;99.90;;;;;;4994637;28;19928;-87
2023/09/17 10:14:03;;;;;;;;;;;18.20;99.90;;;;;;5000665;28;19924;-86
2023/09/17 10:16:39;;;;;;;;;;;18.30;99.90;;;;;;5021848;28;20556;-87
2023/09/17 10:19:04;;;;;;;;;;;18.30;99.90;;;;;;5013041;28;19921;-87
2023/09/17 10:21:32;;;;;;;;;;;18.30;99.90;;;;;;5021239;28;19943;-87
2023/09/17 10:23:58;;;;;;;;;;;18.30;99.90;;;;;;5026172;28;19924;-89
2023/09/17 10:26:32;;;;;;;;;;;18.30;99.90;;;;;;5004244;28;19925;-89
2023/09/17 10:28:58;;;;;;;;;;;18.30;99.90;;;;;;5034628;27;19980;-87
2023/09/17 10:31:24;;;;;;;;;;;18.20;99.90;;;;;;5014182;28;19932;-88
2023/09/17 10:33:52;;;;;;;;;;;18.20;99.90;;;;;;5008638;28;20430;-89
2023/09/17 10:36:18;;;;;;;;;;;18.10;99.90;;;;;;5012832;28;20342;-87
2023/09/17 10:38:46;;;;;;;;;;;18.10;99.90;;;;;;5013407;28;20007;-90
2023/09/17 10:41:12;;;;;;;;;;;18.00;99.90;;;;;;5030733;28;19936;-91
2023/09/17 10:43:39;;;;;;;;;;;18.00;99.90;;;;;;5028856;28;19924;-94
2023/09/17 10:46:08;;;;;;;;;;;17.90;99.90;;;;;;5015611;28;20382;-93
2023/09/17 10:48:34;;;;;;;;;;;18.00;99.90;;;;;;5038381;28;19927;-92
2023/09/17 10:51:02;;;;;;;;;;;18.00;99.90;;;;;;5030994;28;20374;-93
2023/09/17 10:53:28;;;;;;;;;;;18.00;99.90;;;;;;5011100;28;20885;-92
2023/09/17 10:56:15;;;;;;;;;;;18.00;99.90;;;;;;5012781;27;20015;-93
2023/09/17 10:58:46;;;;;;;;;;;18.10;99.90;;;;;;5010068;28;20397;-91
2023/09/17 11:01:16;;;;;;;;;;;18.20;99.90;;;;;;5031403;27;20664;-92
2023/09/17 11:03:47;;;;;;;;;;;18.20;99.90;;;;;;5013756;28;20369;-92
2023/09/17 11:06:17;;;;;;;;;;;18.20;99.90;;;;;;5018085;28;20290;-91
2023/09/17 11:08:47;;;;;;;;;;;18.20;99.90;;;;;;5011955;27;19921;-93
2023/09/17 11:11:45;;;;;;;;;;;18.20;99.90;;;;;;5009455;27;19963;-93
2023/09/17 11:14:12;;;;;;;;;;;18.20;99.90;;;;;;5019144;28;20709;-90
2023/09/17 11:16:38;;;;;;;;;;;18.20;99.90;;;;;;5015059;28;19942;-91
2023/09/17 11:19:10;;;;;;;;;;;18.30;99.90;;;;;;5020149;27;20383;-91
2023/09/17 11:21:49;;;;;;;;;;;18.30;99.90;;;;;;5011868;28;19928;-89
2023/09/17 11:24:19;;;;;;;;;;;18.40;99.90;;;;;;5020392;27;20379;-88
2023/09/17 11:27:04;;;;;;;;;;;18.50;99.90;;;;;;5027676;28;20252;-87
2023/09/17 11:29:42;;;;;;;;;;;18.60;99.90;;;;;;5022447;27;19928;-87
2023/09/17 11:32:12;;;;;;;;;;;18.70;99.90;;;;;;5006534;28;19921;-88
2023/09/17 11:34:41;;;;;;;;;;;18.90;99.90;;;;;;5006818;28;20378;-84
2023/09/17 11:37:07;;;;;;;;;;;19.10;99.90;;;;;;5006749;28;19920;-86
2023/09/17 11:39:36;;;;;;;;;;;19.20;99.90;;;;;;5009826;28;19921;-87
2023/09/17 11:42:03;;;;;;;;;;;19.30;99.90;;;;;;5025499;28;19929;-87
2023/09/17 11:44:31;;;;;;;;;;;19.40;99.90;;;;;;5005452;28;19936;-84
2023/09/17 11:46:56;;;;;;;;;;;19.50;99.90;;;;;;5006641;28;19945;-84
2023/09/17 11:49:22;;;;;;;;;;;19.50;99.90;;;;;;5005996;28;19924;-84
2023/09/17 11:51:48;;;;;;;;;;;19.40;99.90;;;;;;5005302;28;19920;-84
2023/09/17 11:54:20;;;;;;;;;;;19.40;99.90;;;;;;5024550;27;19921;-85
2023/09/17 11:56:47;;;;;;;;;;;19.40;99.90;;;;;;5011020;28;19920;-85
2023/09/17 11:59:15;;;;;;;;;;;19.30;99.90;;;;;;5026019;27;19920;-85
2023/09/17 12:01:42;;;;;;;;;;;19.40;99.90;;;;;;5006059;28;20309;-85
2023/09/17 12:04:08;;;;;;;;;;;19.40;99.90;;;;;;5009184;28;20294;-84
2023/09/17 12:06:46;;;;;;;;;;;19.50;99.90;;;;;;5005722;28;19954;-85
2023/09/17 12:11:56;;;;;;;;;;;19.70;99.90;;;;;;5026074;28;19963;-85
2023/09/17 12:14:22;;;;;;;;;;;19.80;99.90;;;;;;5003854;28;19931;-85
2023/09/17 12:16:49;;;;;;;;;;;19.80;99.90;;;;;;5005086;28;19924;-86
2023/09/17 12:19:14;;;;;;;;;;;19.90;99.90;;;;;;5009737;28;19921;-86
2023/09/17 12:21:55;;;;;;;;;;;19.90;99.90;;;;;;4994769;27;19928;-85
2023/09/17 12:24:23;;;;;;;;;;;20.00;99.90;;;;;;5003827;28;19925;-86
2023/09/17 12:29:33;;;;;;;;;;;20.10;99.90;;;;;;5016630;28;19925;-86
2023/09/17 12:31:58;;;;;;;;;;;20.10;99.90;;;;;;4996857;28;20443;-85
2023/09/17 12:34:25;;;;;;;;;;;20.20;99.90;;;;;;5023296;28;19931;-86
2023/09/17 12:36:50;;;;;;;;;;;20.20;99.90;;;;;;5007870;28;19921;-85
2023/09/17 12:39:19;;;;;;;;;;;20.20;99.90;;;;;;5019217;28;19927;-86
2023/09/17 12:41:44;;;;;;;;;;;20.20;99.90;;;;;;5005276;28;19928;-86
2023/09/17 12:44:10;;;;;;;;;;;20.30;99.90;;;;;;5002504;28;19921;-85
2023/09/17 12:46:39;;;;;;;;;;;20.30;99.90;;;;;;5006142;28;19943;-86
2023/09/17 12:49:08;;;;;;;;;;;20.40;99.90;;;;;;5009583;28;19935;-85
2023/09/17 12:51:37;;;;;;;;;;;20.40;99.90;;;;;;5006699;28;19928;-84
2023/09/17 12:54:04;;;;;;;;;;;20.40;99.90;;;;;;5012513;28;19965;-85
2023/09/17 12:56:31;;;;;;;;;;;20.40;99.90;;;;;;5005315;28;19925;-86
2023/09/17 12:58:57;;;;;;;;;;;20.40;99.90;;;;;;5001336;28;19964;-85
2023/09/17 13:01:23;;;;;;;;;;;20.30;99.90;;;;;;5005879;28;19932;-85
2023/09/17 13:03:53;;;;;;;;;;;20.30;99.90;;;;;;5007505;28;19973;-85
2023/09/17 13:06:23;;;;;;;;;;;20.30;99.90;;;;;;5006832;28;19933;-85
2023/09/17 13:08:49;;;;;;;;;;;20.30;99.90;;;;;;4998371;28;20535;-83
2023/09/17 13:11:16;;;;;;;;;;;20.30;99.90;;;;;;4983454;28;19930;-85
2023/09/17 13:13:45;;;;;;;;;;;20.30;99.90;;;;;;4982274;28;19930;-85
2023/09/17 13:16:11;;;;;;;;;;;20.30;99.90;;;;;;4985808;28;19921;-84
2023/09/17 13:18:36;;;;;;;;;;;20.30;99.90;;;;;;4984492;28;19922;-85
2023/09/17 13:21:03;;;;;;;;;;;20.30;99.90;;;;;;4981988;28;19959;-85
2023/09/17 13:23:28;;;;;;;;;;;20.30;99.90;;;;;;4981579;28;20010;-85
2023/09/17 13:25:55;;;;;;;;;;;20.30;99.90;;;;;;4998478;28;20046;-85
2023/09/17 13:28:20;;;;;;;;;;;20.20;99.90;;;;;;4996262;28;20008;-85
2023/09/17 13:30:46;;;;;;;;;;;20.20;99.90;;;;;;4996882;28;20003;-84
2023/09/17 13:33:14;;;;;;;;;;;20.30;99.90;;;;;;4970305;28;19925;-85
2023/09/17 13:35:51;;;;;;;;;;;20.30;99.90;;;;;;4980377;28;19931;-85
2023/09/17 13:38:20;;;;;;;;;;;20.30;99.90;;;;;;4981529;28;19921;-84
2023/09/17 13:40:46;;;;;;;;;;;20.30;99.90;;;;;;4993994;28;20398;-85
2023/09/17 13:43:12;;;;;;;;;;;20.30;99.90;;;;;;4981333;28;19990;-84
2023/09/17 13:45:37;;;;;;;;;;;20.30;99.90;;;;;;4976046;28;20444;-83
2023/09/17 13:48:03;;;;;;;;;;;20.40;99.90;;;;;;4988278;28;19929;-84
2023/09/17 13:50:32;;;;;;;;;;;20.40;99.90;;;;;;4984672;28;19921;-85
2023/09/17 13:52:58;;;;;;;;;;;20.50;99.90;;;;;;4996277;28;19925;-83
2023/09/17 13:55:24;;;;;;;;;;;20.50;99.90;;;;;;4979829;28;20016;-86
2023/09/17 13:57:54;;;;;;;;;;;20.50;99.90;;;;;;4981793;28;19941;-84
2023/09/17 14:00:20;;;;;;;;;;;20.50;99.90;;;;;;4980752;28;20622;-84
2023/09/17 14:02:45;;;;;;;;;;;20.50;99.90;;;;;;4978075;28;19929;-84
2023/09/17 14:05:11;;;;;;;;;;;20.50;99.90;;;;;;4994660;28;20383;-85
2023/09/17 14:07:36;;;;;;;;;;;20.50;99.90;;;;;;4985748;28;19965;-85
2023/09/17 14:10:02;;;;;;;;;;;20.50;99.90;;;;;;4991166;28;19921;-84
2023/09/17 14:12:28;;;;;;;;;;;20.50;99.90;;;;;;4977708;28;19990;-84
2023/09/17 14:14:53;;;;;;;;;;;20.50;99.90;;;;;;4982370;28;20386;-85
2023/09/17 14:17:19;;;;;;;;;;;20.60;99.90;;;;;;4987557;28;19929;-84
2023/09/17 14:19:45;;;;;;;;;;;20.60;99.90;;;;;;4979363;28;20160;-85